sensor_id;sensor_type;location;lat;lon;timestamp;pressure;altitude;pressure_sealevel;temperature;humidity
13765;BME280;6953;48.810;9.204;2023-04-07T00:00:20;98792.13;;;8.66;100.00
13765;BME280;6953;48.810;9.204;2023-04-07T00:02:45;98660.31;;;7.92;100.00
13765;BME280;6953;48.810;9.204;2023-04-07T00:05:11;98786.88;;;8.66;100.00
13765;BME280;6953;48.810;9.204;2023-04-07T00:07:37;98782.50;;;8.66;100.00
13765;BME280;6953;48.810;9.204;2023-04-07T00:10:02;98460.66;;;6.82;100.00
13765;BME280;6953;48.810;9.204;2023-04-07T00:12:27;98757.53;;;8.59;100.00
13765;BME280;6953;48.810;9.204;2023-04-07T00:14:53;98780.22;;;8.59;100.00
13765;BME280;6953;48.810;9.204;2023-04-07T00:17:18;98755.06;;;8.56;100.00
13765;BME280;6953;48.810;9.204;2023-04-07T00:19:43;98449.09;;;6.68;100.00
13765;BME280;6953;48.810;9.204;2023-04-07T00:22:09;98767.78;;;8.64;100.00
13765;BME280;6953;48.810;9.204;2023-04-07T00:24:34;98457.91;;;6.85;100.00
13765;BME280;6953;48.810;9.204;2023-04-07T00:27:00;98706.44;;;8.32;100.00
13765;BME280;6953;48.810;9.204;2023-04-07T00:29:25;98719.19;;;8.20;100.00
13765;BME280;6953;48.810;9.204;2023-04-07T00:31:51;98442.47;;;6.81;100.00
13765;BME280;6953;48.810;9.204;2023-04-07T00:34:16;98748.00;;;8.58;100.00
13765;BME280;6953;48.810;9.204;2023-04-07T00:36:41;98745.31;;;8.60;100.00
13765;BME280;6953;48.810;9.204;2023-04-07T00:39:07;98440.63;;;6.83;100.00
13765;BME280;6953;48.810;9.204;2023-04-07T00:41:35;98733.94;;;8.61;100.00
13765;BME280;6953;48.810;9.204;2023-04-07T00:44:01;98644.19;;;8.02;100.00
13765;BME280;6953;48.810;9.204;2023-04-07T00:46:27;98743.56;;;8.60;100.00
13765;BME280;6953;48.810;9.204;2023-04-07T00:48:52;98398.25;;;6.58;100.00
13765;BME280;6953;48.810;9.204;2023-04-07T00:51:21;98768.78;;;8.61;100.00
13765;BME280;6953;48.810;9.204;2023-04-07T00:53:48;98729.69;;;8.58;100.00
13765;BME280;6953;48.810;9.204;2023-04-07T00:56:13;98720.06;;;8.59;100.00
13765;BME280;6953;48.810;9.204;2023-04-07T00:58:39;98606.34;;;7.92;100.00
13765;BME280;6953;48.810;9.204;2023-04-07T01:01:26;98714.66;;;8.63;100.00
13765;BME280;6953;48.810;9.204;2023-04-07T01:04:04;98535.22;;;7.47;100.00
13765;BME280;6953;48.810;9.204;2023-04-07T01:06:35;98387.19;;;6.73;100.00
13765;BME280;6953;48.810;9.204;2023-04-07T01:09:42;98707.00;;;8.59;100.00
13765;BME280;6953;48.810;9.204;2023-04-07T01:15:11;98393.06;;;6.78;100.00
13765;BME280;6953;48.810;9.204;2023-04-07T01:17:42;98727.59;;;8.46;100.00
13765;BME280;6953;48.810;9.204;2023-04-07T01:20:13;98694.69;;;8.61;100.00
13765;BME280;6953;48.810;9.204;2023-04-07T01:22:50;98373.84;;;6.80;100.00
13765;BME280;6953;48.810;9.204;2023-04-07T01:30:32;98670.69;;;8.53;100.00
13765;BME280;6953;48.810;9.204;2023-04-07T01:33:00;98683.63;;;8.56;100.00
13765;BME280;6953;48.810;9.204;2023-04-07T01:35:32;98656.66;;;8.35;100.00
13765;BME280;6953;48.810;9.204;2023-04-07T01:37:59;98331.22;;;6.41;100.00
13765;BME280;6953;48.810;9.204;2023-04-07T01:40:25;98527.97;;;7.34;100.00
13765;BME280;6953;48.810;9.204;2023-04-07T01:42:51;98412.66;;;6.86;100.00
13765;BME280;6953;48.810;9.204;2023-04-07T01:45:18;98676.09;;;8.48;100.00
13765;BME280;6953;48.810;9.204;2023-04-07T01:47:44;98646.56;;;8.28;100.00
13765;BME280;6953;48.810;9.204;2023-04-07T01:50:11;98678.66;;;8.50;100.00
13765;BME280;6953;48.810;9.204;2023-04-07T01:52:37;98606.31;;;8.12;100.00
13765;BME280;6953;48.810;9.204;2023-04-07T01:55:05;98363.00;;;6.69;100.00
13765;BME280;6953;48.810;9.204;2023-04-07T01:57:30;98670.13;;;8.26;100.00
13765;BME280;6953;48.810;9.204;2023-04-07T01:59:56;98656.19;;;8.46;100.00
13765;BME280;6953;48.810;9.204;2023-04-07T02:02:21;98573.91;;;7.96;100.00
13765;BME280;6953;48.810;9.204;2023-04-07T02:04:53;98346.00;;;6.61;100.00
13765;BME280;6953;48.810;9.204;2023-04-07T02:07:35;98706.28;;;8.55;100.00
13765;BME280;6953;48.810;9.204;2023-04-07T02:10:04;98372.78;;;6.84;100.00
13765;BME280;6953;48.810;9.204;2023-04-07T02:12:31;98357.41;;;6.78;100.00
13765;BME280;6953;48.810;9.204;2023-04-07T02:14:57;98660.84;;;8.58;100.00
13765;BME280;6953;48.810;9.204;2023-04-07T02:17:25;98667.16;;;8.54;100.00
13765;BME280;6953;48.810;9.204;2023-04-07T02:19:54;98654.50;;;8.63;100.00
13765;BME280;6953;48.810;9.204;2023-04-07T02:22:21;98624.53;;;8.14;100.00
13765;BME280;6953;48.810;9.204;2023-04-07T02:24:46;98646.25;;;8.54;100.00
13765;BME280;6953;48.810;9.204;2023-04-07T02:27:12;98667.47;;;8.46;100.00
13765;BME280;6953;48.810;9.204;2023-04-07T02:29:37;98597.69;;;8.30;100.00
13765;BME280;6953;48.810;9.204;2023-04-07T02:32:02;98548.31;;;8.04;100.00
13765;BME280;6953;48.810;9.204;2023-04-07T02:34:28;98540.47;;;8.04;100.00
13765;BME280;6953;48.810;9.204;2023-04-07T02:36:53;98645.72;;;8.46;100.00
13765;BME280;6953;48.810;9.204;2023-04-07T02:39:18;98649.84;;;8.70;100.00
13765;BME280;6953;48.810;9.204;2023-04-07T02:41:44;98379.97;;;7.18;100.00
13765;BME280;6953;48.810;9.204;2023-04-07T02:44:09;98634.94;;;8.72;100.00
13765;BME280;6953;48.810;9.204;2023-04-07T02:46:35;98627.34;;;8.66;100.00
13765;BME280;6953;48.810;9.204;2023-04-07T02:49:00;98628.19;;;8.66;100.00
13765;BME280;6953;48.810;9.204;2023-04-07T02:51:25;98369.19;;;7.07;100.00
13765;BME280;6953;48.810;9.204;2023-04-07T02:53:51;98410.66;;;7.13;100.00
13765;BME280;6953;48.810;9.204;2023-04-07T02:56:16;98613.09;;;8.54;100.00
13765;BME280;6953;48.810;9.204;2023-04-07T02:58:42;98606.81;;;8.58;100.00
13765;BME280;6953;48.810;9.204;2023-04-07T03:01:07;98632.31;;;8.72;100.00
13765;BME280;6953;48.810;9.204;2023-04-07T03:03:32;98625.44;;;8.69;100.00
13765;BME280;6953;48.810;9.204;2023-04-07T03:05:58;98616.53;;;8.73;100.00
13765;BME280;6953;48.810;9.204;2023-04-07T03:08:23;98611.25;;;8.75;100.00
13765;BME280;6953;48.810;9.204;2023-04-07T03:10:48;98339.28;;;7.14;100.00
13765;BME280;6953;48.810;9.204;2023-04-07T03:13:14;98645.09;;;8.78;100.00
13765;BME280;6953;48.810;9.204;2023-04-07T03:15:43;98619.03;;;8.76;100.00
13765;BME280;6953;48.810;9.204;2023-04-07T03:18:09;98612.72;;;8.80;100.00
13765;BME280;6953;48.810;9.204;2023-04-07T03:20:36;98344.94;;;7.05;100.00
13765;BME280;6953;48.810;9.204;2023-04-07T03:23:02;98583.00;;;8.64;100.00
13765;BME280;6953;48.810;9.204;2023-04-07T03:25:27;98606.72;;;8.78;100.00
13765;BME280;6953;48.810;9.204;2023-04-07T03:27:52;98338.75;;;7.25;100.00
13765;BME280;6953;48.810;9.204;2023-04-07T03:30:18;98325.63;;;7.27;100.00
13765;BME280;6953;48.810;9.204;2023-04-07T03:32:43;98337.28;;;7.38;100.00
13765;BME280;6953;48.810;9.204;2023-04-07T03:35:08;98601.09;;;9.04;100.00
13765;BME280;6953;48.810;9.204;2023-04-07T03:37:34;98597.88;;;9.16;100.00
13765;BME280;6953;48.810;9.204;2023-04-07T03:40:00;98506.78;;;8.72;100.00
13765;BME280;6953;48.810;9.204;2023-04-07T03:42:25;98583.63;;;9.22;100.00
13765;BME280;6953;48.810;9.204;2023-04-07T03:44:50;98509.66;;;9.01;99.30
13765;BME280;6953;48.810;9.204;2023-04-07T03:47:16;98611.91;;;9.49;98.71
13765;BME280;6953;48.810;9.204;2023-04-07T03:49:41;98585.38;;;9.56;97.96
13765;BME280;6953;48.810;9.204;2023-04-07T03:52:07;98590.38;;;9.61;97.54
13765;BME280;6953;48.810;9.204;2023-04-07T03:54:32;98552.19;;;9.40;97.30
13765;BME280;6953;48.810;9.204;2023-04-07T03:56:59;98466.94;;;9.01;96.56
13765;BME280;6953;48.810;9.204;2023-04-07T03:59:25;98579.50;;;9.68;96.33
13765;BME280;6953;48.810;9.204;2023-04-07T04:01:51;98604.25;;;9.63;96.23
13765;BME280;6953;48.810;9.204;2023-04-07T04:04:16;98599.94;;;9.62;96.01
13765;BME280;6953;48.810;9.204;2023-04-07T04:06:42;98502.44;;;9.23;95.40
13765;BME280;6953;48.810;9.204;2023-04-07T04:09:07;98313.69;;;8.12;95.11
13765;BME280;6953;48.810;9.204;2023-04-07T04:11:32;98580.34;;;9.69;95.99
13765;BME280;6953;48.810;9.204;2023-04-07T04:13:58;98529.31;;;9.27;95.47
13765;BME280;6953;48.810;9.204;2023-04-07T04:16:23;98579.22;;;9.74;95.22
13765;BME280;6953;48.810;9.204;2023-04-07T04:18:48;98578.13;;;9.78;94.92
13765;BME280;6953;48.810;9.204;2023-04-07T04:21:14;98563.63;;;9.71;95.24
13765;BME280;6953;48.810;9.204;2023-04-07T04:23:39;98597.06;;;9.83;94.91
13765;BME280;6953;48.810;9.204;2023-04-07T04:26:05;98549.53;;;9.74;94.27
13765;BME280;6953;48.810;9.204;2023-04-07T04:28:30;98567.25;;;9.86;94.50
13765;BME280;6953;48.810;9.204;2023-04-07T04:30:55;98517.19;;;9.58;93.99
13765;BME280;6953;48.810;9.204;2023-04-07T04:33:21;98567.31;;;9.84;94.44
13765;BME280;6953;48.810;9.204;2023-04-07T04:35:46;98564.84;;;9.81;94.33
13765;BME280;6953;48.810;9.204;2023-04-07T04:38:11;98315.69;;;8.07;94.03
13765;BME280;6953;48.810;9.204;2023-04-07T04:40:37;98567.81;;;9.75;94.27
13765;BME280;6953;48.810;9.204;2023-04-07T04:43:02;98569.66;;;9.73;94.30
13765;BME280;6953;48.810;9.204;2023-04-07T04:45:31;98482.44;;;9.22;94.35
13765;BME280;6953;48.810;9.204;2023-04-07T04:47:57;98436.19;;;8.89;94.51
13765;BME280;6953;48.810;9.204;2023-04-07T04:50:22;98578.44;;;9.72;94.57
13765;BME280;6953;48.810;9.204;2023-04-07T04:52:48;98601.00;;;9.75;94.08
13765;BME280;6953;48.810;9.204;2023-04-07T04:55:13;98250.66;;;7.84;94.35
13765;BME280;6953;48.810;9.204;2023-04-07T04:57:38;98365.72;;;8.52;94.52
13765;BME280;6953;48.810;9.204;2023-04-07T05:00:05;98555.16;;;9.66;93.86
13765;BME280;6953;48.810;9.204;2023-04-07T05:02:31;98496.88;;;9.29;93.72
13765;BME280;6953;48.810;9.204;2023-04-07T05:04:57;98535.84;;;9.52;94.13
13765;BME280;6953;48.810;9.204;2023-04-07T05:07:22;98554.47;;;9.63;94.17
13765;BME280;6953;48.810;9.204;2023-04-07T05:09:48;98572.19;;;9.75;93.98
13765;BME280;6953;48.810;9.204;2023-04-07T05:12:14;98572.13;;;9.76;94.09
13765;BME280;6953;48.810;9.204;2023-04-07T05:14:39;98573.97;;;9.74;94.36
13765;BME280;6953;48.810;9.204;2023-04-07T05:17:05;98575.81;;;9.72;94.17
13765;BME280;6953;48.810;9.204;2023-04-07T05:19:30;98571.34;;;9.74;93.54
13765;BME280;6953;48.810;9.204;2023-04-07T05:21:56;98512.97;;;9.38;93.80
13765;BME280;6953;48.810;9.204;2023-04-07T05:24:22;98578.50;;;9.71;93.74
13765;BME280;6953;48.810;9.204;2023-04-07T05:26:47;98572.19;;;9.75;93.37
13765;BME280;6953;48.810;9.204;2023-04-07T05:29:13;98369.88;;;8.56;93.17
13765;BME280;6953;48.810;9.204;2023-04-07T05:31:38;98579.66;;;9.65;93.34
13765;BME280;6953;48.810;9.204;2023-04-07T05:34:05;98521.91;;;9.51;92.75
13765;BME280;6953;48.810;9.204;2023-04-07T05:36:30;98580.09;;;9.90;92.91
13765;BME280;6953;48.810;9.204;2023-04-07T05:38:55;98565.47;;;9.86;92.50
13765;BME280;6953;48.810;9.204;2023-04-07T05:41:21;98582.19;;;10.01;91.91
13765;BME280;6953;48.810;9.204;2023-04-07T05:43:46;98581.78;;;10.08;91.87
13765;BME280;6953;48.810;9.204;2023-04-07T05:46:12;98428.16;;;9.26;91.48
13765;BME280;6953;48.810;9.204;2023-04-07T05:48:37;98364.31;;;8.96;90.94
13765;BME280;6953;48.810;9.204;2023-04-07T05:51:02;98574.66;;;10.27;90.49
13765;BME280;6953;48.810;9.204;2023-04-07T05:53:28;98570.84;;;10.32;90.69
13765;BME280;6953;48.810;9.204;2023-04-07T05:55:53;98568.56;;;10.42;90.07
13765;BME280;6953;48.810;9.204;2023-04-07T05:58:18;98581.09;;;10.52;89.77
13765;BME280;6953;48.810;9.204;2023-04-07T06:00:44;98577.31;;;10.58;89.38
13765;BME280;6953;48.810;9.204;2023-04-07T06:03:09;98553.53;;;10.45;89.20
13765;BME280;6953;48.810;9.204;2023-04-07T06:05:35;98524.66;;;10.15;88.96
13765;BME280;6953;48.810;9.204;2023-04-07T06:08:01;98579.44;;;10.67;88.56
13765;BME280;6953;48.810;9.204;2023-04-07T06:10:26;98616.59;;;10.75;88.22
13765;BME280;6953;48.810;9.204;2023-04-07T06:12:51;98577.16;;;10.76;87.58
13765;BME280;6953;48.810;9.204;2023-04-07T06:15:17;98577.84;;;10.80;87.81
13765;BME280;6953;48.810;9.204;2023-04-07T06:17:42;98590.88;;;10.81;87.39
13765;BME280;6953;48.810;9.204;2023-04-07T06:20:10;98590.44;;;10.89;87.22
13765;BME280;6953;48.810;9.204;2023-04-07T06:22:35;98608.81;;;10.89;86.77
13765;BME280;6953;48.810;9.204;2023-04-07T06:25:01;98588.47;;;10.92;86.16
13765;BME280;6953;48.810;9.204;2023-04-07T06:27:26;98570.47;;;10.86;85.85
13765;BME280;6953;48.810;9.204;2023-04-07T06:29:52;98588.91;;;11.00;85.83
13765;BME280;6953;48.810;9.204;2023-04-07T06:32:17;98584.00;;;11.10;85.89
13765;BME280;6953;48.810;9.204;2023-04-07T06:34:43;98505.22;;;10.65;84.76
13765;BME280;6953;48.810;9.204;2023-04-07T06:37:08;98587.97;;;11.17;84.37
13765;BME280;6953;48.810;9.204;2023-04-07T06:39:33;98580.44;;;11.11;83.63
13765;BME280;6953;48.810;9.204;2023-04-07T06:41:59;98340.66;;;9.77;83.42
13765;BME280;6953;48.810;9.204;2023-04-07T06:44:25;98574.41;;;11.24;83.56
13765;BME280;6953;48.810;9.204;2023-04-07T06:46:51;98583.75;;;11.43;83.01
13765;BME280;6953;48.810;9.204;2023-04-07T06:49:18;98580.78;;;11.49;82.68
13765;BME280;6953;48.810;9.204;2023-04-07T06:51:43;98565.19;;;11.46;82.12
13765;BME280;6953;48.810;9.204;2023-04-07T06:54:09;98333.06;;;10.19;81.60
13765;BME280;6953;48.810;9.204;2023-04-07T06:56:41;98579.28;;;11.75;81.59
13765;BME280;6953;48.810;9.204;2023-04-07T06:59:06;98337.72;;;10.43;80.83
13765;BME280;6953;48.810;9.204;2023-04-07T07:01:32;98545.69;;;11.80;80.68
13765;BME280;6953;48.810;9.204;2023-04-07T07:03:58;98568.63;;;12.06;80.15
13765;BME280;6953;48.810;9.204;2023-04-07T07:06:25;98569.97;;;12.13;79.16
13765;BME280;6953;48.810;9.204;2023-04-07T07:08:50;98477.06;;;11.70;79.19
13765;BME280;6953;48.810;9.204;2023-04-07T07:11:16;98387.09;;;11.10;78.42
13765;BME280;6953;48.810;9.204;2023-04-07T07:13:41;98472.16;;;11.64;78.16
13765;BME280;6953;48.810;9.204;2023-04-07T07:16:06;98312.72;;;10.81;77.69
13765;BME280;6953;48.810;9.204;2023-04-07T07:18:32;98335.22;;;11.13;77.27
13765;BME280;6953;48.810;9.204;2023-04-07T07:20:57;98565.50;;;12.55;76.45
13765;BME280;6953;48.810;9.204;2023-04-07T07:23:22;98582.13;;;12.69;75.98
13765;BME280;6953;48.810;9.204;2023-04-07T07:25:48;98450.84;;;11.97;75.38
13765;BME280;6953;48.810;9.204;2023-04-07T07:28:13;98570.19;;;12.78;75.23
13765;BME280;6953;48.810;9.204;2023-04-07T07:30:39;98574.00;;;13.00;74.96
13765;BME280;6953;48.810;9.204;2023-04-07T07:33:05;98571.59;;;13.24;74.48
13765;BME280;6953;48.810;9.204;2023-04-07T07:35:31;98581.66;;;13.44;73.35
13765;BME280;6953;48.810;9.204;2023-04-07T07:37:56;98375.50;;;12.50;72.31
13765;BME280;6953;48.810;9.204;2023-04-07T07:40:22;98504.91;;;13.36;71.18
13765;BME280;6953;48.810;9.204;2023-04-07T07:42:47;98340.69;;;12.59;70.31
13765;BME280;6953;48.810;9.204;2023-04-07T07:45:13;98608.41;;;14.28;69.77
13765;BME280;6953;48.810;9.204;2023-04-07T07:47:38;98468.34;;;14.18;68.38
13765;BME280;6953;48.810;9.204;2023-04-07T07:50:04;98393.69;;;14.52;64.64
13765;BME280;6953;48.810;9.204;2023-04-07T07:52:31;98566.13;;;16.93;60.18
13765;BME280;6953;48.810;9.204;2023-04-07T07:54:56;98354.44;;;16.79;54.85
13765;BME280;6953;48.810;9.204;2023-04-07T07:57:21;98575.91;;;18.59;52.99
13765;BME280;6953;48.810;9.204;2023-04-07T07:59:47;98517.09;;;19.50;48.62
13765;BME280;6953;48.810;9.204;2023-04-07T08:02:12;98560.59;;;21.33;43.28
13765;BME280;6953;48.810;9.204;2023-04-07T08:04:38;98563.00;;;22.31;39.54
13765;BME280;6953;48.810;9.204;2023-04-07T08:07:03;98575.81;;;23.04;37.56
13765;BME280;6953;48.810;9.204;2023-04-07T08:09:29;98556.81;;;22.48;37.67
13765;BME280;6953;48.810;9.204;2023-04-07T08:11:56;98475.69;;;21.54;39.19
13765;BME280;6953;48.810;9.204;2023-04-07T08:14:21;98530.50;;;21.76;39.42
13765;BME280;6953;48.810;9.204;2023-04-07T08:16:46;98587.47;;;22.36;38.69
13765;BME280;6953;48.810;9.204;2023-04-07T08:19:12;98577.78;;;22.18;39.58
13765;BME280;6953;48.810;9.204;2023-04-07T08:21:38;98509.06;;;21.50;39.47
13765;BME280;6953;48.810;9.204;2023-04-07T08:24:03;98406.38;;;20.48;39.90
13765;BME280;6953;48.810;9.204;2023-04-07T08:26:29;98575.47;;;20.82;41.12
13765;BME280;6953;48.810;9.204;2023-04-07T08:28:55;98588.97;;;20.71;42.70
13765;BME280;6953;48.810;9.204;2023-04-07T08:31:20;98590.28;;;20.58;42.77
13765;BME280;6953;48.810;9.204;2023-04-07T08:33:46;98562.03;;;20.28;42.94
13765;BME280;6953;48.810;9.204;2023-04-07T08:36:11;98445.53;;;20.11;40.71
13765;BME280;6953;48.810;9.204;2023-04-07T08:38:37;98565.78;;;22.39;36.50
13765;BME280;6953;48.810;9.204;2023-04-07T08:41:12;98564.06;;;24.20;33.09
13765;BME280;6953;48.810;9.204;2023-04-07T08:43:41;98563.31;;;24.73;30.28
13765;BME280;6953;48.810;9.204;2023-04-07T08:46:08;98600.16;;;25.03;30.10
13765;BME280;6953;48.810;9.204;2023-04-07T08:48:36;98614.91;;;25.07;29.82
13765;BME280;6953;48.810;9.204;2023-04-07T08:51:06;98450.69;;;24.33;30.10
13765;BME280;6953;48.810;9.204;2023-04-07T08:53:40;98617.09;;;25.04;30.12
13765;BME280;6953;48.810;9.204;2023-04-07T08:56:08;98618.53;;;24.76;30.56
13765;BME280;6953;48.810;9.204;2023-04-07T08:58:35;98350.00;;;23.37;30.22
13765;BME280;6953;48.810;9.204;2023-04-07T09:01:04;98608.53;;;25.54;29.02
13765;BME280;6953;48.810;9.204;2023-04-07T09:03:31;98611.09;;;25.70;29.08
13765;BME280;6953;48.810;9.204;2023-04-07T09:05:57;98604.19;;;25.84;29.31
13765;BME280;6953;48.810;9.204;2023-04-07T09:08:24;98612.59;;;25.81;29.79
13765;BME280;6953;48.810;9.204;2023-04-07T09:10:49;98608.91;;;25.43;29.93
13765;BME280;6953;48.810;9.204;2023-04-07T09:13:15;98618.91;;;25.11;29.40
13765;BME280;6953;48.810;9.204;2023-04-07T09:15:41;98603.53;;;24.89;29.61
13765;BME280;6953;48.810;9.204;2023-04-07T09:18:06;98617.13;;;24.96;29.59
13765;BME280;6953;48.810;9.204;2023-04-07T09:23:40;98616.63;;;25.46;29.19
13765;BME280;6953;48.810;9.204;2023-04-07T09:28:49;98565.47;;;25.32;29.03
13765;BME280;6953;48.810;9.204;2023-04-07T09:31:15;98423.59;;;26.09;25.91
13765;BME280;6953;48.810;9.204;2023-04-07T09:33:41;98612.44;;;28.36;24.55
13765;BME280;6953;48.810;9.204;2023-04-07T09:36:06;98600.19;;;28.19;25.09
13765;BME280;6953;48.810;9.204;2023-04-07T09:38:38;98649.06;;;27.88;25.66
13765;BME280;6953;48.810;9.204;2023-04-07T09:41:12;98427.28;;;25.94;27.38
13765;BME280;6953;48.810;9.204;2023-04-07T09:43:40;98614.34;;;25.96;28.27
13765;BME280;6953;48.810;9.204;2023-04-07T09:46:16;98607.34;;;25.11;30.05
13765;BME280;6953;48.810;9.204;2023-04-07T09:48:43;98502.56;;;23.78;31.48
13765;BME280;6953;48.810;9.204;2023-04-07T09:51:13;98586.50;;;23.79;32.52
13765;BME280;6953;48.810;9.204;2023-04-07T09:53:49;98543.81;;;23.20;33.04
13765;BME280;6953;48.810;9.204;2023-04-07T09:56:16;98595.38;;;23.30;34.13
13765;BME280;6953;48.810;9.204;2023-04-07T09:58:44;98598.47;;;23.10;33.62
13765;BME280;6953;48.810;9.204;2023-04-07T10:01:11;98596.91;;;22.99;34.43
13765;BME280;6953;48.810;9.204;2023-04-07T10:03:37;98597.91;;;23.06;34.48
13765;BME280;6953;48.810;9.204;2023-04-07T10:06:03;98603.72;;;23.27;34.60
13765;BME280;6953;48.810;9.204;2023-04-07T10:08:33;98534.53;;;22.73;33.92
13765;BME280;6953;48.810;9.204;2023-04-07T10:11:00;98471.38;;;21.96;35.47
13765;BME280;6953;48.810;9.204;2023-04-07T10:13:28;98599.59;;;22.48;36.21
13765;BME280;6953;48.810;9.204;2023-04-07T10:15:54;98588.00;;;22.65;35.74
13765;BME280;6953;48.810;9.204;2023-04-07T10:18:22;98400.53;;;21.67;35.35
13765;BME280;6953;48.810;9.204;2023-04-07T10:20:51;98590.50;;;23.25;34.81
13765;BME280;6953;48.810;9.204;2023-04-07T10:23:21;98595.41;;;24.51;32.03
13765;BME280;6953;48.810;9.204;2023-04-07T10:25:48;98620.72;;;24.40;32.49
13765;BME280;6953;48.810;9.204;2023-04-07T10:28:15;98568.72;;;24.41;31.55
13765;BME280;6953;48.810;9.204;2023-04-07T10:30:42;98355.97;;;23.87;31.00
13765;BME280;6953;48.810;9.204;2023-04-07T10:33:09;98471.66;;;25.90;28.10
13765;BME280;6953;48.810;9.204;2023-04-07T10:36:03;98605.97;;;25.91;29.45
13765;BME280;6953;48.810;9.204;2023-04-07T10:38:29;98631.47;;;27.28;27.39
13765;BME280;6953;48.810;9.204;2023-04-07T10:40:56;98505.03;;;30.12;23.38
13765;BME280;6953;48.810;9.204;2023-04-07T10:43:38;98574.22;;;33.63;19.54
13765;BME280;6953;48.810;9.204;2023-04-07T10:46:04;98644.72;;;35.46;18.21
13765;BME280;6953;48.810;9.204;2023-04-07T10:48:30;98640.78;;;33.43;19.52
13765;BME280;6953;48.810;9.204;2023-04-07T10:53:28;98621.38;;;29.12;23.92
13765;BME280;6953;48.810;9.204;2023-04-07T10:55:54;98544.06;;;27.66;25.40
13765;BME280;6953;48.810;9.204;2023-04-07T10:58:28;98606.28;;;27.21;25.81
13765;BME280;6953;48.810;9.204;2023-04-07T11:03:40;98597.41;;;25.57;28.32
13765;BME280;6953;48.810;9.204;2023-04-07T11:06:10;98577.13;;;25.17;29.24
13765;BME280;6953;48.810;9.204;2023-04-07T11:11:04;98590.88;;;25.82;28.91
13765;BME280;6953;48.810;9.204;2023-04-07T11:13:54;98429.97;;;24.74;28.59
13765;BME280;6953;48.810;9.204;2023-04-07T11:16:34;98602.31;;;25.00;29.83
13765;BME280;6953;48.810;9.204;2023-04-07T11:18:59;98578.63;;;24.01;31.38
13765;BME280;6953;48.810;9.204;2023-04-07T11:21:25;98544.94;;;23.17;32.72
13765;BME280;6953;48.810;9.204;2023-04-07T11:23:50;98533.34;;;22.42;34.17
13765;BME280;6953;48.810;9.204;2023-04-07T11:26:15;98576.69;;;22.28;35.79
13765;BME280;6953;48.810;9.204;2023-04-07T11:28:49;98410.38;;;20.62;36.82
13765;BME280;6953;48.810;9.204;2023-04-07T11:31:26;98540.53;;;20.76;38.53
13765;BME280;6953;48.810;9.204;2023-04-07T11:33:57;98583.97;;;20.59;39.24
13765;BME280;6953;48.810;9.204;2023-04-07T11:36:39;98605.22;;;20.22;40.40
13765;BME280;6953;48.810;9.204;2023-04-07T11:39:05;98504.22;;;19.64;41.60
13765;BME280;6953;48.810;9.204;2023-04-07T11:41:46;98410.22;;;18.88;42.12
13765;BME280;6953;48.810;9.204;2023-04-07T11:44:12;98437.50;;;18.81;43.27
13765;BME280;6953;48.810;9.204;2023-04-07T11:46:59;98602.97;;;19.61;44.98
13765;BME280;6953;48.810;9.204;2023-04-07T11:49:26;98595.53;;;19.55;45.13
13765;BME280;6953;48.810;9.204;2023-04-07T11:52:04;98627.75;;;19.52;44.81
13765;BME280;6953;48.810;9.204;2023-04-07T11:54:42;98642.94;;;19.22;45.72
13765;BME280;6953;48.810;9.204;2023-04-07T11:57:08;98609.34;;;18.20;48.39
13765;BME280;6953;48.810;9.204;2023-04-07T11:59:36;98620.34;;;17.75;49.85
13765;BME280;6953;48.810;9.204;2023-04-07T12:02:02;98380.97;;;16.15;50.97
13765;BME280;6953;48.810;9.204;2023-04-07T12:04:28;98590.81;;;17.04;52.09
13765;BME280;6953;48.810;9.204;2023-04-07T12:06:53;98374.22;;;15.34;53.48
13765;BME280;6953;48.810;9.204;2023-04-07T12:09:27;98462.63;;;15.75;55.44
13765;BME280;6953;48.810;9.204;2023-04-07T12:11:54;98624.22;;;16.52;58.52
13765;BME280;6953;48.810;9.204;2023-04-07T12:14:19;98616.03;;;15.99;61.45
13765;BME280;6953;48.810;9.204;2023-04-07T12:16:45;98626.34;;;16.02;66.18
13765;BME280;6953;48.810;9.204;2023-04-07T12:19:10;98638.69;;;15.79;67.77
13765;BME280;6953;48.810;9.204;2023-04-07T12:21:36;98642.47;;;15.64;69.44
13765;BME280;6953;48.810;9.204;2023-04-07T12:24:01;98641.97;;;15.36;71.33
13765;BME280;6953;48.810;9.204;2023-04-07T12:26:27;98647.56;;;15.19;73.34
13765;BME280;6953;48.810;9.204;2023-04-07T12:28:52;98644.06;;;14.95;75.41
13765;BME280;6953;48.810;9.204;2023-04-07T12:31:19;98569.00;;;14.50;74.14
13765;BME280;6953;48.810;9.204;2023-04-07T12:33:44;98641.59;;;15.05;73.18
13765;BME280;6953;48.810;9.204;2023-04-07T12:36:10;98560.34;;;14.96;70.08
13765;BME280;6953;48.810;9.204;2023-04-07T12:38:36;98339.44;;;14.12;67.79
13765;BME280;6953;48.810;9.204;2023-04-07T12:41:01;98626.09;;;15.94;65.71
13765;BME280;6953;48.810;9.204;2023-04-07T12:43:30;98612.72;;;16.19;64.49
13765;BME280;6953;48.810;9.204;2023-04-07T12:45:55;98474.97;;;15.64;63.66
13765;BME280;6953;48.810;9.204;2023-04-07T12:48:21;98377.31;;;15.39;62.52
13765;BME280;6953;48.810;9.204;2023-04-07T12:50:46;98404.53;;;15.85;60.36
13765;BME280;6953;48.810;9.204;2023-04-07T12:53:12;98617.44;;;17.36;58.62
13765;BME280;6953;48.810;9.204;2023-04-07T12:55:37;98406.81;;;16.33;57.63
13765;BME280;6953;48.810;9.204;2023-04-07T12:58:02;98588.16;;;17.37;55.61
13765;BME280;6953;48.810;9.204;2023-04-07T13:00:28;98342.50;;;15.89;54.75
13765;BME280;6953;48.810;9.204;2023-04-07T13:02:54;98553.13;;;17.12;54.90
13765;BME280;6953;48.810;9.204;2023-04-07T13:05:20;98655.00;;;17.63;54.92
13765;BME280;6953;48.810;9.204;2023-04-07T13:07:46;98621.97;;;17.56;54.77
13765;BME280;6953;48.810;9.204;2023-04-07T13:10:11;98378.56;;;16.12;54.89
13765;BME280;6953;48.810;9.204;2023-04-07T13:12:36;98371.94;;;15.95;56.82
13765;BME280;6953;48.810;9.204;2023-04-07T13:15:04;98624.91;;;17.42;56.94
13765;BME280;6953;48.810;9.204;2023-04-07T13:17:30;98610.91;;;17.40;56.39
13765;BME280;6953;48.810;9.204;2023-04-07T13:19:55;98637.38;;;17.62;55.62
13765;BME280;6953;48.810;9.204;2023-04-07T13:22:21;98630.09;;;17.74;55.14
13765;BME280;6953;48.810;9.204;2023-04-07T13:24:46;98392.00;;;16.42;54.93
13765;BME280;6953;48.810;9.204;2023-04-07T13:27:11;98407.28;;;16.38;54.80
13765;BME280;6953;48.810;9.204;2023-04-07T13:29:37;98608.75;;;17.45;54.81
13765;BME280;6953;48.810;9.204;2023-04-07T13:32:09;98465.63;;;16.69;54.70